Time;durP1;ratioP1;P1;durP2;ratioP2;P2;SDS_P1;SDS_P2;PMS_P1;PMS_P2;Temp;Humidity;BMP_temperature;BMP_pressure;BME280_temperature;BME280_humidity;BME280_pressure;Samples;Min_cycle;Max_cycle;Signal;HPM_P1;HPM_P2
2023/05/11 00:01:05;;;;;;;20.33;8.97;;;12.40;99.90;;;;;;5088121;28;20433;-72
2023/05/11 00:03:31;;;;;;;23.75;9.98;;;12.40;99.90;;;;;;5087912;28;20756;-72
2023/05/11 00:05:57;;;;;;;21.37;9.20;;;12.30;99.90;;;;;;5087904;28;20394;-72
2023/05/11 00:08:23;;;;;;;17.73;9.97;;;12.30;99.90;;;;;;5088928;28;20438;-72
2023/05/11 00:10:49;;;;;;;26.30;11.20;;;12.30;99.90;;;;;;5088449;28;20430;-72
2023/05/11 00:13:15;;;;;;;19.65;9.85;;;12.20;99.90;;;;;;5088840;28;20394;-72
2023/05/11 00:15:41;;;;;;;26.50;10.63;;;12.30;99.90;;;;;;5089044;28;20931;-72
2023/05/11 00:18:06;;;;;;;18.60;10.13;;;12.20;99.90;;;;;;5089388;28;20522;-72
2023/05/11 00:20:32;;;;;;;20.38;9.50;;;12.20;99.90;;;;;;5089251;28;20820;-72
2023/05/11 00:22:58;;;;;;;18.77;9.83;;;12.20;99.90;;;;;;5087903;28;20760;-72
2023/05/11 00:25:23;;;;;;;19.30;9.13;;;12.20;99.90;;;;;;5087889;28;20484;-72
2023/05/11 00:27:49;;;;;;;17.80;8.75;;;12.20;99.90;;;;;;5071021;28;20441;-72
2023/05/11 00:30:15;;;;;;;23.67;9.83;;;12.20;99.90;;;;;;5087064;28;20401;-72
2023/05/11 00:32:41;;;;;;;20.25;9.48;;;12.20;99.90;;;;;;5087939;28;20414;-72
2023/05/11 00:35:08;;;;;;;21.25;10.15;;;12.20;99.90;;;;;;5087282;28;20433;-72
2023/05/11 00:37:34;;;;;;;20.38;8.73;;;12.20;99.90;;;;;;5088005;28;21721;-72
2023/05/11 00:39:59;;;;;;;22.67;9.87;;;12.20;99.90;;;;;;5086590;28;20433;-72
2023/05/11 00:42:25;;;;;;;19.98;9.77;;;12.20;99.90;;;;;;5078551;28;20440;-72
2023/05/11 00:44:51;;;;;;;21.80;10.70;;;12.10;99.90;;;;;;5087190;28;20406;-72
2023/05/11 00:47:16;;;;;;;23.58;10.00;;;12.20;99.90;;;;;;5088454;28;20406;-72
2023/05/11 00:49:42;;;;;;;33.33;9.83;;;12.20;99.90;;;;;;5084108;28;20417;-72
2023/05/11 00:52:08;;;;;;;21.30;9.67;;;12.10;99.90;;;;;;5088753;28;20501;-73
2023/05/11 00:54:35;;;;;;;28.17;10.83;;;12.10;99.90;;;;;;5088538;28;20506;-73
2023/05/11 00:57:01;;;;;;;26.77;9.13;;;12.10;99.90;;;;;;5069408;28;20420;-73
2023/05/11 00:59:27;;;;;;;31.45;9.68;;;12.10;99.90;;;;;;5087598;28;20410;-73
2023/05/11 01:01:53;;;;;;;25.27;9.27;;;12.10;99.90;;;;;;5085868;28;20402;-73
2023/05/11 01:04:19;;;;;;;21.60;8.85;;;12.00;99.90;;;;;;5077748;28;20413;-73
2023/05/11 01:06:58;;;;;;;21.40;8.88;;;12.10;99.90;;;;;;5086489;28;20462;-73
2023/05/11 01:10:02;;;;;;;14.80;8.17;;;12.00;99.90;;;;;;5089108;28;20973;-73
2023/05/11 01:12:51;;;;;;;13.50;6.70;;;12.00;99.90;;;;;;5087736;28;20810;-73
2023/05/11 01:15:42;;;;;;;10.90;6.75;;;12.00;99.90;;;;;;5088035;28;20510;-73
2023/05/11 01:18:37;;;;;;;8.77;6.13;;;12.00;99.90;;;;;;5069727;28;20410;-73
2023/05/11 01:21:04;;;;;;;10.10;5.97;;;12.00;99.90;;;;;;5077666;28;20916;-73
2023/05/11 01:23:51;;;;;;;9.23;5.60;;;12.00;99.90;;;;;;5086427;28;20477;-73
2023/05/11 01:26:17;;;;;;;9.77;5.60;;;12.00;99.90;;;;;;5086174;28;20814;-73
2023/05/11 01:29:09;;;;;;;9.33;5.67;;;11.90;99.90;;;;;;5086222;28;20437;-73
2023/05/11 01:31:39;;;;;;;13.98;7.45;;;11.90;99.90;;;;;;5085941;28;20422;-73
2023/05/11 01:34:11;;;;;;;15.27;8.73;;;11.90;99.90;;;;;;5069590;28;20406;-73
2023/05/11 01:36:43;;;;;;;17.20;9.00;;;11.90;99.90;;;;;;5087335;28;20788;-73
2023/05/11 01:39:11;;;;;;;15.57;8.80;;;11.90;99.90;;;;;;5086312;28;20410;-73
2023/05/11 01:41:39;;;;;;;16.95;8.93;;;11.90;99.90;;;;;;5087270;28;20413;-73
2023/05/11 01:44:09;;;;;;;16.65;9.63;;;12.00;99.90;;;;;;5086421;28;20767;-73
2023/05/11 01:46:34;;;;;;;15.00;8.90;;;12.00;99.90;;;;;;5068611;28;20417;-73
2023/05/11 01:49:05;;;;;;;16.17;9.30;;;12.00;99.90;;;;;;5086972;28;20402;-73
2023/05/11 01:51:36;;;;;;;15.70;9.20;;;12.00;99.90;;;;;;5069449;28;20414;-73
2023/05/11 01:54:05;;;;;;;12.07;7.72;;;12.00;99.90;;;;;;5087427;28;20406;-73
2023/05/11 01:56:32;;;;;;;11.30;7.35;;;12.00;99.90;;;;;;5086806;28;20413;-73
2023/05/11 01:58:59;;;;;;;10.80;7.35;;;12.00;99.90;;;;;;5074979;28;20760;-73
2023/05/11 02:01:26;;;;;;;11.55;7.82;;;12.00;99.90;;;;;;5085670;28;20755;-73
2023/05/11 02:03:53;;;;;;;8.48;6.40;;;12.00;99.90;;;;;;5075410;28;20410;-73
2023/05/11 02:06:20;;;;;;;13.68;9.05;;;12.00;99.90;;;;;;5087237;28;21177;-73
2023/05/11 02:08:48;;;;;;;13.82;8.55;;;12.00;99.90;;;;;;5080486;28;20890;-73
2023/05/11 02:11:14;;;;;;;16.52;9.90;;;12.00;99.90;;;;;;5086582;28;20773;-73
2023/05/11 02:13:43;;;;;;;19.88;11.20;;;12.00;99.90;;;;;;5091724;28;20409;-73
2023/05/11 02:16:09;;;;;;;19.60;10.65;;;12.00;99.90;;;;;;5073338;28;20406;-73
2023/05/11 02:18:38;;;;;;;16.20;9.35;;;12.00;99.90;;;;;;5091524;28;20409;-72
2023/05/11 02:21:06;;;;;;;13.43;8.70;;;12.00;99.90;;;;;;5088582;28;20424;-73
2023/05/11 02:23:33;;;;;;;13.80;8.88;;;12.00;99.90;;;;;;5080017;28;20406;-73
2023/05/11 02:25:59;;;;;;;12.80;8.98;;;11.90;99.90;;;;;;5090104;28;20442;-73
2023/05/11 02:28:25;;;;;;;12.60;9.00;;;11.90;99.90;;;;;;5090100;28;20939;-73
2023/05/11 02:30:55;;;;;;;13.63;9.57;;;11.90;99.90;;;;;;5089627;28;20471;-73
2023/05/11 02:33:27;;;;;;;15.03;10.47;;;11.80;99.90;;;;;;5064129;28;20409;-73
2023/05/11 02:35:55;;;;;;;17.02;10.63;;;11.90;99.90;;;;;;5090694;28;20449;-73
2023/05/11 02:38:28;;;;;;;16.45;10.70;;;11.90;99.90;;;;;;5089573;28;20467;-73
2023/05/11 02:40:59;;;;;;;14.83;10.30;;;11.90;99.90;;;;;;5072366;28;20496;-73
2023/05/11 02:43:31;;;;;;;12.98;9.05;;;11.80;99.90;;;;;;5090590;28;20460;-73
2023/05/11 02:46:01;;;;;;;14.53;9.07;;;11.80;99.90;;;;;;5088123;28;20401;-73
2023/05/11 02:48:30;;;;;;;15.05;9.45;;;11.70;99.90;;;;;;5090653;28;20773;-73
2023/05/11 02:50:57;;;;;;;11.80;7.80;;;11.70;99.90;;;;;;5089494;28;20406;-73
2023/05/11 02:53:26;;;;;;;11.77;7.32;;;11.70;99.90;;;;;;5079036;28;20414;-73
2023/05/11 02:55:54;;;;;;;13.63;8.43;;;11.70;99.90;;;;;;5090024;28;20915;-73
2023/05/11 02:58:20;;;;;;;12.23;8.07;;;11.70;99.90;;;;;;5088585;28;20776;-73
2023/05/11 03:00:46;;;;;;;13.30;7.97;;;11.70;99.90;;;;;;5089961;28;20397;-73
2023/05/11 03:03:12;;;;;;;14.65;8.43;;;11.60;99.90;;;;;;5088997;28;20414;-73
2023/05/11 03:05:38;;;;;;;14.45;8.45;;;11.60;99.90;;;;;;5072782;28;20935;-73
2023/05/11 03:08:04;;;;;;;14.88;8.38;;;11.50;99.90;;;;;;5089413;28;20998;-73
2023/05/11 03:10:30;;;;;;;14.15;8.75;;;11.50;99.90;;;;;;5089619;28;20490;-72
2023/05/11 03:12:56;;;;;;;12.73;7.47;;;11.40;99.90;;;;;;5090154;28;20472;-72
2023/05/11 03:15:22;;;;;;;10.80;6.80;;;11.50;99.90;;;;;;5089470;28;20445;-73
2023/05/11 03:17:50;;;;;;;10.80;6.05;;;11.50;99.90;;;;;;5072104;28;20404;-73
2023/05/11 03:20:18;;;;;;;9.73;5.85;;;11.40;99.90;;;;;;5071823;28;20514;-73
2023/05/11 03:22:45;;;;;;;7.72;5.00;;;11.40;99.90;;;;;;5089182;28;20802;-73
2023/05/11 03:25:11;;;;;;;8.80;5.18;;;11.40;99.90;;;;;;5091038;28;20405;-73
2023/05/11 03:27:40;;;;;;;8.15;5.03;;;11.40;99.90;;;;;;5090081;28;20426;-73
2023/05/11 03:30:11;;;;;;;7.47;4.75;;;11.30;99.90;;;;;;5072089;28;20463;-73
2023/05/11 03:32:36;;;;;;;7.88;4.72;;;11.40;99.90;;;;;;5089203;28;20860;-73
2023/05/11 03:35:03;;;;;;;9.87;5.60;;;11.40;99.90;;;;;;5089128;28;20464;-73
2023/05/11 03:37:33;;;;;;;10.15;6.40;;;11.40;99.90;;;;;;5087996;28;20417;-73
2023/05/11 03:40:00;;;;;;;11.77;6.63;;;11.40;99.90;;;;;;5090552;28;20402;-73
2023/05/11 03:42:27;;;;;;;11.68;6.97;;;11.30;99.90;;;;;;5087158;28;20493;-73
2023/05/11 03:44:57;;;;;;;10.95;6.40;;;11.30;99.90;;;;;;5089009;28;20499;-73
2023/05/11 03:47:27;;;;;;;11.82;5.75;;;11.30;99.90;;;;;;5088152;28;20426;-73
2023/05/11 03:49:53;;;;;;;6.10;3.92;;;11.30;99.90;;;;;;5088641;28;20405;-73
2023/05/11 03:52:20;;;;;;;6.43;3.87;;;11.30;99.90;;;;;;5089906;28;20398;-73
2023/05/11 03:54:46;;;;;;;7.05;4.65;;;11.30;99.90;;;;;;5088114;28;20908;-73
2023/05/11 03:57:13;;;;;;;9.48;5.38;;;11.30;99.90;;;;;;5087406;28;20417;-73
2023/05/11 03:59:39;;;;;;;8.85;5.30;;;11.30;99.90;;;;;;5089749;28;20757;-73
2023/05/11 04:02:05;;;;;;;9.83;6.20;;;11.30;99.90;;;;;;5087803;28;20492;-73
2023/05/11 04:04:31;;;;;;;11.65;6.28;;;11.30;99.90;;;;;;5088338;28;20441;-73
2023/05/11 04:06:57;;;;;;;11.93;6.82;;;11.30;99.90;;;;;;5076855;28;20813;-72
2023/05/11 04:09:23;;;;;;;12.23;7.53;;;11.30;99.90;;;;;;5087989;28;20437;-73
2023/05/11 04:11:49;;;;;;;14.57;8.10;;;11.30;99.90;;;;;;5089563;28;20434;-73
2023/05/11 04:14:16;;;;;;;13.13;7.65;;;11.40;99.90;;;;;;5087560;28;20911;-73
2023/05/11 04:16:42;;;;;;;11.90;7.40;;;11.40;99.90;;;;;;5077116;28;20440;-72
2023/05/11 04:19:08;;;;;;;12.25;7.55;;;11.40;99.90;;;;;;5088021;28;20497;-73
2023/05/11 04:21:34;;;;;;;11.48;7.28;;;11.40;99.90;;;;;;5089131;28;20492;-73
2023/05/11 04:24:00;;;;;;;12.32;7.40;;;11.40;99.90;;;;;;5088171;28;20878;-72
2023/05/11 04:26:26;;;;;;;15.02;7.90;;;11.40;99.90;;;;;;5088479;28;20410;-73
2023/05/11 04:28:51;;;;;;;11.47;7.27;;;11.40;99.90;;;;;;5087084;28;20428;-73
2023/05/11 04:31:17;;;;;;;12.52;7.45;;;11.40;99.90;;;;;;5088245;28;20438;-73
2023/05/11 04:33:43;;;;;;;12.33;7.20;;;11.40;99.90;;;;;;5089025;28;20417;-73
2023/05/11 04:36:08;;;;;;;12.00;7.30;;;11.50;99.90;;;;;;5087430;28;20443;-73
2023/05/11 04:38:34;;;;;;;12.65;7.97;;;11.50;99.90;;;;;;5087043;28;20768;-73
2023/05/11 04:41:04;;;;;;;12.57;7.90;;;11.50;99.90;;;;;;5087517;28;20422;-73
2023/05/11 04:43:30;;;;;;;11.65;7.30;;;11.50;99.90;;;;;;5087176;28;20459;-73
2023/05/11 04:45:56;;;;;;;13.40;8.23;;;11.50;99.90;;;;;;5080859;28;20787;-72
2023/05/11 04:48:22;;;;;;;14.45;8.05;;;11.50;99.90;;;;;;5082020;28;20947;-72
2023/05/11 04:50:47;;;;;;;15.20;8.47;;;11.50;99.90;;;;;;5087372;28;20900;-73
2023/05/11 04:53:13;;;;;;;12.88;7.88;;;11.50;99.90;;;;;;5087074;28;20516;-73
2023/05/11 04:55:39;;;;;;;13.17;7.63;;;11.60;99.90;;;;;;5087302;28;20406;-73
2023/05/11 04:58:04;;;;;;;12.23;7.97;;;11.60;99.90;;;;;;5087206;28;20446;-73
2023/05/11 05:00:30;;;;;;;11.88;7.55;;;11.50;99.90;;;;;;5088037;28;20401;-73
2023/05/11 05:02:56;;;;;;;11.47;7.10;;;11.60;99.90;;;;;;5074664;28;20404;-73
2023/05/11 05:05:21;;;;;;;9.88;6.32;;;11.60;99.90;;;;;;5087684;28;20443;-73
2023/05/11 05:07:47;;;;;;;9.70;6.23;;;11.60;99.90;;;;;;5088329;28;20433;-73
2023/05/11 05:10:12;;;;;;;10.63;6.43;;;11.60;99.90;;;;;;5087012;28;20413;-73
2023/05/11 05:12:38;;;;;;;9.73;5.93;;;11.60;99.90;;;;;;5087487;28;20818;-72
2023/05/11 05:15:05;;;;;;;9.50;5.93;;;11.60;99.90;;;;;;5088573;28;20402;-73
2023/05/11 05:17:31;;;;;;;10.15;6.35;;;11.70;99.90;;;;;;5087881;28;20425;-71
2023/05/11 05:19:59;;;;;;;9.30;5.93;;;11.60;99.90;;;;;;5086920;28;20445;-71
2023/05/11 05:22:25;;;;;;;10.93;7.05;;;11.60;99.90;;;;;;5088152;28;20497;-71
2023/05/11 05:24:50;;;;;;;11.07;6.87;;;11.60;99.90;;;;;;5087752;28;20486;-71
2023/05/11 05:27:16;;;;;;;10.35;6.35;;;11.60;99.90;;;;;;5085856;28;20907;-72
2023/05/11 05:29:42;;;;;;;8.77;5.83;;;11.60;99.90;;;;;;5077634;28;20429;-72
2023/05/11 05:32:08;;;;;;;9.15;6.30;;;11.50;99.90;;;;;;5089299;28;20410;-72
2023/05/11 05:34:33;;;;;;;9.07;6.27;;;11.50;99.90;;;;;;5087440;28;20405;-72
2023/05/11 05:36:59;;;;;;;10.65;6.75;;;11.50;99.90;;;;;;5086268;28;20880;-72
2023/05/11 05:39:25;;;;;;;9.90;6.47;;;11.50;99.90;;;;;;5087429;28;20429;-72
2023/05/11 05:41:51;;;;;;;9.20;6.13;;;11.60;99.90;;;;;;5086743;28;20406;-72
2023/05/11 05:44:16;;;;;;;10.43;6.65;;;11.50;99.90;;;;;;5069067;28;20402;-72
2023/05/11 05:46:42;;;;;;;12.07;7.43;;;11.60;99.90;;;;;;5086593;28;20459;-72
2023/05/11 05:49:07;;;;;;;14.47;7.57;;;11.50;99.90;;;;;;5069503;28;20450;-72
2023/05/11 05:51:33;;;;;;;13.95;7.72;;;11.50;99.90;;;;;;5069461;28;20417;-72
2023/05/11 05:53:59;;;;;;;16.00;7.90;;;11.50;99.90;;;;;;5086512;28;20416;-72
2023/05/11 05:56:25;;;;;;;18.13;8.27;;;11.50;99.90;;;;;;5084951;28;20406;-72
2023/05/11 05:58:51;;;;;;;15.00;7.82;;;11.50;99.90;;;;;;5074239;28;20802;-72
2023/05/11 06:01:17;;;;;;;10.27;6.82;;;11.50;99.90;;;;;;5086151;28;20394;-72
2023/05/11 06:03:44;;;;;;;10.00;5.77;;;11.50;99.90;;;;;;5086167;28;20410;-72
2023/05/11 06:06:10;;;;;;;9.02;5.70;;;11.50;99.90;;;;;;5068959;28;20892;-72
2023/05/11 06:08:36;;;;;;;8.85;5.60;;;11.40;99.90;;;;;;5086041;28;20533;-72
2023/05/11 06:11:02;;;;;;;7.93;5.10;;;11.50;99.90;;;;;;5085951;28;20497;-72
2023/05/11 06:13:27;;;;;;;8.10;5.35;;;11.50;99.90;;;;;;5069290;28;20462;-72
2023/05/11 06:15:53;;;;;;;8.43;5.05;;;11.50;99.90;;;;;;5087361;28;20401;-72
2023/05/11 06:18:19;;;;;;;7.47;5.23;;;11.50;99.90;;;;;;5086001;28;20398;-72
2023/05/11 06:20:44;;;;;;;7.60;5.32;;;11.60;99.90;;;;;;5087237;28;20838;-72
2023/05/11 06:23:10;;;;;;;7.97;5.13;;;11.60;99.90;;;;;;5085900;28;20821;-72
2023/05/11 06:25:36;;;;;;;9.15;5.75;;;11.60;99.90;;;;;;5087231;28;20427;-72
2023/05/11 06:28:02;;;;;;;10.52;6.57;;;11.70;99.90;;;;;;5085442;28;20516;-72
2023/05/11 06:30:28;;;;;;;8.77;6.10;;;11.80;99.90;;;;;;5087519;28;20421;-72
2023/05/11 06:32:54;;;;;;;8.10;6.00;;;11.80;99.90;;;;;;5086300;28;20427;-72
2023/05/11 06:35:20;;;;;;;9.48;6.57;;;11.80;99.90;;;;;;5086155;28;20406;-72
2023/05/11 06:37:45;;;;;;;9.35;6.65;;;11.80;99.90;;;;;;5086206;28;20436;-72
2023/05/11 06:40:12;;;;;;;9.40;6.40;;;11.90;99.90;;;;;;5086895;28;20406;-72
2023/05/11 06:42:37;;;;;;;7.65;5.88;;;11.90;99.90;;;;;;5087290;28;20402;-72
2023/05/11 06:45:04;;;;;;;9.33;6.53;;;12.00;99.90;;;;;;5086100;28;20772;-72
2023/05/11 06:47:29;;;;;;;9.82;6.90;;;12.00;99.90;;;;;;5085652;28;20545;-72
2023/05/11 06:49:55;;;;;;;10.00;7.65;;;12.00;99.90;;;;;;5087614;28;20434;-72
2023/05/11 06:52:20;;;;;;;10.13;6.97;;;12.00;99.90;;;;;;5085886;28;20401;-72
2023/05/11 06:54:46;;;;;;;9.48;6.80;;;12.00;99.90;;;;;;5087720;28;20402;-72
2023/05/11 06:57:12;;;;;;;8.00;6.20;;;12.10;99.90;;;;;;5090063;28;20397;-72
2023/05/11 06:59:37;;;;;;;10.00;7.10;;;12.10;99.90;;;;;;5089473;28;20763;-72
2023/05/11 07:02:03;;;;;;;9.83;6.97;;;12.20;99.90;;;;;;5090842;28;20394;-72
2023/05/11 07:04:28;;;;;;;9.82;6.88;;;12.20;99.90;;;;;;5090821;28;20401;-72
2023/05/11 07:06:54;;;;;;;8.83;6.50;;;12.20;99.90;;;;;;5089986;28;20905;-72
2023/05/11 07:09:20;;;;;;;9.20;6.80;;;12.20;99.90;;;;;;5089295;28;20398;-72
2023/05/11 07:11:46;;;;;;;8.23;6.37;;;12.30;99.90;;;;;;5089431;28;20408;-72
2023/05/11 07:14:11;;;;;;;8.10;6.18;;;12.30;99.90;;;;;;5089417;28;20469;-72
2023/05/11 07:16:37;;;;;;;8.57;6.20;;;12.30;99.90;;;;;;5090099;28;20485;-73
2023/05/11 07:19:03;;;;;;;9.17;6.60;;;12.40;99.90;;;;;;5090535;28;20399;-72
2023/05/11 07:21:31;;;;;;;8.75;6.28;;;12.30;99.90;;;;;;5087572;28;20402;-72
2023/05/11 07:23:57;;;;;;;8.88;6.38;;;12.40;99.90;;;;;;5088789;28;20402;-72
2023/05/11 07:26:23;;;;;;;9.13;6.55;;;12.40;99.90;;;;;;5089211;28;20406;-72
2023/05/11 07:28:48;;;;;;;9.50;7.10;;;12.50;99.90;;;;;;5070058;28;20441;-72
2023/05/11 07:31:14;;;;;;;10.50;6.93;;;12.50;99.90;;;;;;5090019;28;20494;-72
2023/05/11 07:33:39;;;;;;;9.37;6.57;;;12.50;99.90;;;;;;5088711;28;20394;-73
2023/05/11 07:36:06;;;;;;;8.27;5.75;;;12.50;99.90;;;;;;5088474;28;20406;-72
2023/05/11 07:38:32;;;;;;;8.53;6.13;;;12.60;99.90;;;;;;5089782;28;20903;-72
2023/05/11 07:40:58;;;;;;;8.17;5.43;;;12.60;99.90;;;;;;5089078;28;20444;-73
2023/05/11 07:43:24;;;;;;;7.50;5.22;;;12.70;99.90;;;;;;5089370;28;20910;-72
2023/05/11 07:45:49;;;;;;;8.07;4.82;;;12.90;99.90;;;;;;5090241;28;20405;-72
2023/05/11 07:48:15;;;;;;;7.23;5.20;;;13.00;99.90;;;;;;5088525;28;20442;-72
2023/05/11 07:50:41;;;;;;;7.20;5.13;;;13.10;99.90;;;;;;5088352;28;20410;-73
2023/05/11 07:53:07;;;;;;;6.22;4.60;;;13.20;99.90;;;;;;5088298;28;20406;-72
2023/05/11 07:55:32;;;;;;;6.80;4.70;;;13.20;99.90;;;;;;5088343;28;20417;-72
2023/05/11 07:57:58;;;;;;;9.25;5.65;;;13.30;99.90;;;;;;5088300;28;20405;-73
2023/05/11 08:00:24;;;;;;;8.10;5.80;;;13.30;99.90;;;;;;5088914;28;20454;-73
2023/05/11 08:02:50;;;;;;;10.15;6.68;;;13.30;99.90;;;;;;5087844;28;20417;-73
2023/05/11 08:05:16;;;;;;;10.23;6.57;;;13.30;99.90;;;;;;5087066;28;20493;-73
2023/05/11 08:07:42;;;;;;;8.95;6.22;;;13.40;99.90;;;;;;5089520;28;20471;-72
2023/05/11 08:10:08;;;;;;;10.00;6.40;;;13.30;99.90;;;;;;5088235;28;20397;-72
2023/05/11 08:12:35;;;;;;;10.80;7.20;;;13.30;99.90;;;;;;5088103;28;20410;-72
2023/05/11 08:15:01;;;;;;;12.38;7.63;;;13.30;99.90;;;;;;5088629;28;20401;-72
2023/05/11 08:17:27;;;;;;;14.77;9.00;;;13.30;99.90;;;;;;5087758;28;20483;-72
2023/05/11 08:19:53;;;;;;;17.50;9.50;;;13.30;99.90;;;;;;5087291;28;20483;-72
2023/05/11 08:22:18;;;;;;;17.60;10.23;;;13.30;99.90;;;;;;5088040;28;20889;-72
2023/05/11 08:24:44;;;;;;;19.60;11.17;;;13.30;99.90;;;;;;5087720;28;21233;-72
2023/05/11 08:27:09;;;;;;;22.52;12.18;;;13.30;99.90;;;;;;5070556;28;20422;-72
2023/05/11 08:29:35;;;;;;;23.87;13.13;;;13.30;99.90;;;;;;5076213;28;20445;-72
2023/05/11 08:32:01;;;;;;;22.63;12.52;;;13.20;99.90;;;;;;5089338;28;20831;-72
2023/05/11 08:34:27;;;;;;;18.13;10.70;;;13.20;99.90;;;;;;5088784;28;20450;-72
2023/05/11 08:36:54;;;;;;;15.02;9.35;;;13.20;99.90;;;;;;5088020;28;20402;-72
2023/05/11 08:39:20;;;;;;;12.75;8.07;;;13.30;99.90;;;;;;5088476;28;20406;-72
2023/05/11 08:41:48;;;;;;;9.35;6.75;;;13.20;99.90;;;;;;5087620;28;20410;-72
2023/05/11 08:44:15;;;;;;;11.52;7.28;;;13.20;99.90;;;;;;5086666;28;20402;-72
2023/05/11 08:46:44;;;;;;;10.50;6.97;;;13.20;99.90;;;;;;5088037;28;20818;-71
2023/05/11 08:49:10;;;;;;;7.85;5.68;;;13.20;99.90;;;;;;5088326;28;20432;-72
2023/05/11 08:51:36;;;;;;;6.80;4.80;;;13.30;99.90;;;;;;5087711;28;20409;-72
2023/05/11 08:54:02;;;;;;;5.23;3.90;;;13.30;99.90;;;;;;5086836;28;20406;-72
2023/05/11 08:56:28;;;;;;;5.37;3.90;;;13.40;99.90;;;;;;5085551;28;20933;-72
2023/05/11 08:58:57;;;;;;;5.70;3.90;;;13.50;99.90;;;;;;5087393;28;20907;-72
2023/05/11 09:01:27;;;;;;;6.17;4.00;;;13.50;99.90;;;;;;5086906;28;20495;-72
2023/05/11 09:03:53;;;;;;;6.13;3.75;;;13.50;99.90;;;;;;5069048;28;20408;-72
2023/05/11 09:06:20;;;;;;;4.68;3.13;;;13.60;99.90;;;;;;5086265;28;20398;-72
2023/05/11 09:08:45;;;;;;;5.53;3.17;;;13.70;99.90;;;;;;5088500;28;20973;-72
2023/05/11 09:11:11;;;;;;;4.25;2.90;;;13.80;99.90;;;;;;5086828;28;20426;-72
2023/05/11 09:13:37;;;;;;;5.10;3.08;;;13.90;99.90;;;;;;5070090;28;20402;-72
2023/05/11 09:16:03;;;;;;;4.30;3.10;;;14.00;99.90;;;;;;5086657;28;20510;-72
2023/05/11 09:18:29;;;;;;;4.20;3.10;;;14.10;99.90;;;;;;5087034;28;20476;-72
2023/05/11 09:20:54;;;;;;;4.35;3.05;;;14.20;99.90;;;;;;5086562;28;20417;-72
2023/05/11 09:23:27;;;;;;;4.57;3.37;;;14.30;99.90;;;;;;5070699;28;20414;-72
2023/05/11 09:25:53;;;;;;;4.30;3.10;;;14.40;99.90;;;;;;5086803;28;20410;-72
2023/05/11 09:28:25;;;;;;;4.80;3.33;;;14.40;99.90;;;;;;5078695;28;20438;-72
2023/05/11 09:30:52;;;;;;;4.10;3.30;;;14.40;99.90;;;;;;5083319;28;20935;-72
2023/05/11 09:33:24;;;;;;;4.03;3.20;;;14.40;99.90;;;;;;5069950;28;20474;-72
2023/05/11 09:35:50;;;;;;;3.40;2.83;;;14.50;99.90;;;;;;5087825;28;20417;-72
2023/05/11 09:38:18;;;;;;;4.30;3.20;;;14.50;99.90;;;;;;5086614;28;20520;-72
2023/05/11 09:40:54;;;;;;;5.80;2.95;;;14.60;99.90;;;;;;5085436;28;20489;-72
2023/05/11 09:43:27;;;;;;;3.50;2.90;;;14.60;99.90;;;;;;5068694;28;20476;-72
2023/05/11 09:46:00;;;;;;;3.33;2.67;;;14.60;99.90;;;;;;5085950;28;20407;-72
2023/05/11 09:48:34;;;;;;;4.07;3.00;;;14.70;99.90;;;;;;5086462;28;20429;-72
2023/05/11 09:51:06;;;;;;;3.30;2.70;;;14.90;99.90;;;;;;5075988;28;20418;-72
2023/05/11 09:53:44;;;;;;;3.00;2.70;;;15.00;99.90;;;;;;5084987;28;20516;-72
2023/05/11 09:56:11;;;;;;;3.55;2.90;;;15.10;99.90;;;;;;5068907;28;20881;-72
2023/05/11 09:58:54;;;;;;;3.38;2.50;;;15.20;99.90;;;;;;5086381;28;20406;-72
2023/05/11 10:01:31;;;;;;;2.57;2.13;;;15.40;99.90;;;;;;5085046;28;20410;-72
2023/05/11 10:03:58;;;;;;;3.08;2.22;;;15.50;99.90;;;;;;5086727;28;20402;-72
2023/05/11 10:06:24;;;;;;;3.10;2.25;;;15.60;99.90;;;;;;5068786;28;21075;-72
2023/05/11 10:08:51;;;;;;;3.83;1.73;;;15.70;99.90;;;;;;5067607;28;20481;-72
2023/05/11 10:11:21;;;;;;;2.67;1.80;;;15.90;99.90;;;;;;5086263;28;20401;-72
2023/05/11 10:13:46;;;;;;;2.40;1.63;;;16.10;99.90;;;;;;5085824;28;20488;-72
2023/05/11 10:16:15;;;;;;;3.30;2.10;;;16.20;99.90;;;;;;5084974;28;20472;-72
2023/05/11 10:18:42;;;;;;;3.58;2.05;;;16.30;99.90;;;;;;5069146;28;20410;-72
2023/05/11 10:21:10;;;;;;;4.93;2.00;;;16.30;99.90;;;;;;5068902;28;21078;-72
2023/05/11 10:23:36;;;;;;;4.13;2.10;;;16.40;99.90;;;;;;5086235;28;20425;-73
2023/05/11 10:26:03;;;;;;;2.90;1.80;;;16.50;99.90;;;;;;5085972;28;20413;-72
2023/05/11 10:28:29;;;;;;;2.45;1.90;;;16.60;99.90;;;;;;5087812;28;20417;-72
2023/05/11 10:30:56;;;;;;;3.47;2.10;;;16.70;99.90;;;;;;5089212;28;20417;-72
2023/05/11 10:33:22;;;;;;;5.22;2.35;;;16.60;99.90;;;;;;5091097;28;20433;-72
2023/05/11 10:35:50;;;;;;;2.87;2.20;;;16.60;99.90;;;;;;5089967;28;20402;-72
2023/05/11 10:38:19;;;;;;;2.50;2.03;;;16.50;99.90;;;;;;5090118;28;21371;-72
2023/05/11 10:40:45;;;;;;;6.18;2.83;;;16.50;99.90;;;;;;5089140;28;20406;-72
2023/05/11 10:43:31;;;;;;;2.72;2.35;;;16.50;99.90;;;;;;5091278;28;20405;-72
2023/05/11 10:46:14;;;;;;;2.92;2.28;;;16.40;99.90;;;;;;5063228;28;20441;-72
2023/05/11 10:49:17;;;;;;;4.03;2.42;;;16.30;99.90;;;;;;5089325;28;21646;-72
2023/05/11 10:52:02;;;;;;;4.23;3.30;;;16.30;99.90;;;;;;5072529;28;20412;-72
2023/05/11 10:54:51;;;;;;;5.03;3.08;;;16.30;99.90;;;;;;5090863;28;20586;-72
2023/05/11 10:57:32;;;;;;;3.83;3.42;;;16.30;99.90;;;;;;5088390;28;20406;-72
2023/05/11 11:00:08;;;;;;;4.13;3.72;;;16.30;99.90;;;;;;5089684;28;20518;-72
2023/05/11 11:02:34;;;;;;;4.65;4.18;;;16.40;99.90;;;;;;5089551;28;20440;-72
2023/05/11 11:05:04;;;;;;;4.57;4.07;;;16.40;99.90;;;;;;5089324;28;21017;-72
2023/05/11 11:07:30;;;;;;;6.22;4.82;;;16.40;99.90;;;;;;5090630;28;20432;-72
2023/05/11 11:10:05;;;;;;;5.60;4.78;;;16.50;99.90;;;;;;5088671;28;20406;-72
2023/05/11 11:12:33;;;;;;;5.50;4.93;;;16.50;99.90;;;;;;5089203;28;20421;-72
2023/05/11 11:15:05;;;;;;;6.60;5.90;;;16.60;99.90;;;;;;5089650;28;20489;-72
2023/05/11 11:17:35;;;;;;;7.10;6.30;;;16.70;99.90;;;;;;5089343;28;20440;-72
2023/05/11 11:20:07;;;;;;;8.03;6.80;;;16.80;99.90;;;;;;5089276;28;20455;-72
2023/05/11 11:22:33;;;;;;;8.13;6.80;;;16.90;99.90;;;;;;5069257;28;20411;-72
2023/05/11 11:24:59;;;;;;;10.07;7.68;;;17.10;99.90;;;;;;5089077;28;20772;-72
2023/05/11 11:27:40;;;;;;;9.60;7.60;;;17.20;99.90;;;;;;5090485;28;20434;-72
2023/05/11 11:30:27;;;;;;;9.93;7.63;;;17.40;99.90;;;;;;5089179;28;20444;-72
2023/05/11 11:33:14;;;;;;;10.25;7.82;;;17.70;99.90;;;;;;5087833;28;20414;-72
2023/05/11 11:35:43;;;;;;;11.95;7.20;;;18.20;99.90;;;;;;5089563;28;20981;-72
2023/05/11 11:38:19;;;;;;;9.07;7.15;;;18.60;99.90;;;;;;5090307;28;20413;-72
2023/05/11 11:40:48;;;;;;;8.00;6.20;;;19.10;99.90;;;;;;5087761;28;21478;-73
2023/05/11 11:43:17;;;;;;;7.93;5.85;;;19.30;99.90;;;;;;5089737;28;20474;-73
2023/05/11 11:45:54;;;;;;;7.57;6.03;;;19.60;99.90;;;;;;5089753;28;20402;-73
2023/05/11 11:48:30;;;;;;;6.75;5.20;;;19.50;99.90;;;;;;5087961;28;20513;-73
2023/05/11 11:51:10;;;;;;;5.88;4.80;;;19.30;99.90;;;;;;5089966;28;20869;-73
2023/05/11 11:53:39;;;;;;;5.72;4.22;;;19.20;99.90;;;;;;5088153;28;20776;-73
2023/05/11 11:56:28;;;;;;;5.57;4.38;;;19.30;99.90;;;;;;5088410;28;20414;-73
2023/05/11 11:58:58;;;;;;;5.07;3.80;;;19.30;99.90;;;;;;5076538;28;20397;-73
2023/05/11 12:01:27;;;;;;;7.80;3.92;;;19.40;99.90;;;;;;5089040;28;20402;-73
2023/05/11 12:04:03;;;;;;;4.85;3.10;;;19.50;99.90;;;;;;5088484;28;20414;-73
2023/05/11 12:06:56;;;;;;;4.20;3.17;;;19.60;99.90;;;;;;5089282;28;20492;-73
2023/05/11 12:09:22;;;;;;;4.45;3.90;;;19.60;99.90;;;;;;5089349;28;20402;-73
2023/05/11 12:11:48;;;;;;;7.43;4.45;;;19.40;99.90;;;;;;5089098;28;20398;-73
2023/05/11 12:14:14;;;;;;;7.88;3.88;;;19.20;99.90;;;;;;5088844;28;20737;-73
2023/05/11 12:16:40;;;;;;;6.38;3.45;;;19.10;99.90;;;;;;5089535;28;20481;-73
2023/05/11 12:19:05;;;;;;;3.70;3.30;;;18.90;99.90;;;;;;5071188;28;20402;-73
2023/05/11 12:21:31;;;;;;;3.50;3.07;;;18.80;99.90;;;;;;5087684;28;20409;-73
2023/05/11 12:24:03;;;;;;;3.15;2.30;;;18.80;99.90;;;;;;5088126;28;20406;-73
2023/05/11 12:26:29;;;;;;;5.90;3.30;;;18.80;99.90;;;;;;5089066;28;20487;-73
2023/05/11 12:29:12;;;;;;;4.07;2.80;;;18.80;99.90;;;;;;5088846;28;20437;-73
2023/05/11 12:31:40;;;;;;;3.70;2.70;;;18.80;99.90;;;;;;5088204;28;21046;-73
2023/05/11 12:34:06;;;;;;;3.97;2.83;;;19.00;99.90;;;;;;5087446;28;20414;-73
2023/05/11 12:36:33;;;;;;;3.42;3.10;;;19.10;99.90;;;;;;5088225;28;20475;-73
2023/05/11 12:38:59;;;;;;;3.60;3.03;;;19.20;99.90;;;;;;5087655;28;20406;-73
2023/05/11 12:41:26;;;;;;;4.10;3.00;;;19.40;99.90;;;;;;5087916;28;20535;-73
2023/05/11 12:43:53;;;;;;;4.23;3.13;;;19.60;99.90;;;;;;5088762;28;20398;-73
2023/05/11 12:46:20;;;;;;;3.38;2.78;;;19.80;99.90;;;;;;5088139;28;20408;-73